Time;durP1;ratioP1;P1;durP2;ratioP2;P2;SDS_P1;SDS_P2;PMS_P1;PMS_P2;Temp;Humidity;BMP_temperature;BMP_pressure;BME280_temperature;BME280_humidity;BME280_pressure;Samples;Min_cycle;Max_cycle;Signal;HPM_P1;HPM_P2
2022/06/26 00:00:11;;;;;;;3.95;1.33;;;;;;;;;;5030402;28;20586;-73
2022/06/26 00:02:37;;;;;;;1.30;1.05;;;;;;;;;;5031321;28;20156;-73
2022/06/26 00:05:03;;;;;;;2.65;1.30;;;;;;;;;;5029378;28;20502;-73
2022/06/26 00:07:28;;;;;;;1.60;1.10;;;;;;;;;;5032125;28;20052;-73
2022/06/26 00:09:53;;;;;;;5.10;1.30;;;;;;;;;;5027801;28;20061;-73
2022/06/26 00:12:19;;;;;;;3.80;1.75;;;;;;;;;;5040282;28;20543;-73
2022/06/26 00:14:44;;;;;;;1.60;1.40;;;;;;;;;;5032483;28;20049;-73
2022/06/26 00:17:10;;;;;;;2.78;1.60;;;;;;;;;;5030559;28;20120;-73
2022/06/26 00:19:35;;;;;;;2.78;1.50;;;;;;;;;;5035669;28;20502;-74
2022/06/26 00:22:05;;;;;;;2.25;1.50;;;;;;;;;;5032813;28;20025;-74
2022/06/26 00:24:31;;;;;;;3.90;1.80;;;;;;;;;;5032335;28;20029;-74
2022/06/26 00:26:56;;;;;;;4.72;1.63;;;;;;;;;;5019047;28;20031;-74
2022/06/26 00:29:21;;;;;;;3.70;1.85;;;;;;;;;;5034115;28;20033;-74
2022/06/26 00:31:47;;;;;;;2.40;1.70;;;;;;;;;;5033948;28;20048;-74
2022/06/26 00:34:12;;;;;;;4.28;1.60;;;;;;;;;;5031906;28;20025;-74
2022/06/26 00:36:37;;;;;;;3.05;1.30;;;;;;;;;;5033099;28;20028;-74
2022/06/26 00:39:03;;;;;;;1.92;1.50;;;;;;;;;;5029161;28;20108;-74
2022/06/26 00:41:28;;;;;;;4.97;1.60;;;;;;;;;;5031439;28;20029;-73
2022/06/26 00:43:53;;;;;;;4.50;1.52;;;;;;;;;;5036792;28;20032;-74
2022/06/26 00:46:20;;;;;;;2.33;1.80;;;;;;;;;;5031331;28;20025;-74
2022/06/26 00:48:45;;;;;;;3.60;1.48;;;;;;;;;;5031689;28;20025;-74
2022/06/26 00:51:11;;;;;;;2.60;1.30;;;;;;;;;;5030465;28;20378;-74
2022/06/26 00:53:37;;;;;;;1.65;1.40;;;;;;;;;;5031712;28;20075;-74
2022/06/26 00:56:02;;;;;;;3.92;1.63;;;;;;;;;;5032668;28;20033;-73
2022/06/26 00:58:28;;;;;;;2.95;1.20;;;;;;;;;;5029381;28;20554;-74
2022/06/26 01:00:54;;;;;;;1.90;1.05;;;;;;;;;;5029931;28;20055;-74
2022/06/26 01:03:19;;;;;;;2.97;1.17;;;;;;;;;;5030029;28;20026;-74
2022/06/26 01:05:44;;;;;;;2.13;1.08;;;;;;;;;;5032390;28;20075;-74
2022/06/26 01:08:10;;;;;;;2.65;1.20;;;;;;;;;;5030729;28;20224;-74
2022/06/26 01:10:36;;;;;;;1.92;0.90;;;;;;;;;;5034587;28;20040;-74
2022/06/26 01:13:01;;;;;;;2.03;1.10;;;;;;;;;;5032061;28;20087;-74
2022/06/26 01:15:27;;;;;;;2.42;1.15;;;;;;;;;;5030062;28;20033;-74
2022/06/26 01:17:54;;;;;;;2.50;0.88;;;;;;;;;;5032951;28;20033;-74
2022/06/26 01:20:19;;;;;;;1.60;1.05;;;;;;;;;;5035951;28;20040;-73
2022/06/26 01:22:56;;;;;;;4.50;1.08;;;;;;;;;;5033894;28;20037;-74
2022/06/26 01:25:21;;;;;;;2.28;1.00;;;;;;;;;;5032911;28;20051;-74
2022/06/26 01:27:47;;;;;;;2.33;1.10;;;;;;;;;;5033347;28;20029;-73
2022/06/26 01:30:12;;;;;;;2.40;0.90;;;;;;;;;;5030192;28;20052;-73
2022/06/26 01:32:37;;;;;;;4.45;1.00;;;;;;;;;;5032389;28;20112;-73
2022/06/26 01:35:03;;;;;;;2.85;0.90;;;;;;;;;;5033703;28;20033;-73
2022/06/26 01:37:28;;;;;;;2.25;0.80;;;;;;;;;;5034138;28;20100;-73
2022/06/26 01:39:54;;;;;;;1.15;1.00;;;;;;;;;;5030693;28;20033;-73
2022/06/26 01:42:19;;;;;;;0.90;0.88;;;;;;;;;;5041989;28;20040;-73
2022/06/26 01:44:44;;;;;;;2.70;1.10;;;;;;;;;;5031832;28;20095;-73
2022/06/26 01:47:09;;;;;;;1.10;1.00;;;;;;;;;;5027654;28;20616;-73
2022/06/26 01:49:35;;;;;;;1.58;0.73;;;;;;;;;;5028879;28;20073;-73
2022/06/26 01:52:00;;;;;;;5.07;0.90;;;;;;;;;;5027612;28;20033;-73
2022/06/26 01:54:25;;;;;;;1.33;0.95;;;;;;;;;;5031534;28;20032;-73
2022/06/26 01:56:51;;;;;;;1.17;1.00;;;;;;;;;;5033070;28;20032;-74
2022/06/26 01:59:16;;;;;;;0.82;0.80;;;;;;;;;;5028228;28;20526;-73
2022/06/26 02:01:41;;;;;;;1.30;0.90;;;;;;;;;;5033116;28;20036;-73
2022/06/26 02:04:07;;;;;;;1.27;0.90;;;;;;;;;;5029839;28;20048;-73
2022/06/26 02:06:32;;;;;;;3.28;1.00;;;;;;;;;;5030810;28;20036;-73
2022/06/26 02:09:04;;;;;;;3.03;0.80;;;;;;;;;;5091523;27;20402;-71
2022/06/26 02:14:13;;;;;;;5.63;1.10;;;;;;;;;;5099473;28;20072;-70
2022/06/26 02:16:39;;;;;;;1.38;1.20;;;;;;;;;;5105500;28;20024;-70
2022/06/26 02:19:04;;;;;;;1.08;1.00;;;;;;;;;;5090439;28;20019;-70
2022/06/26 02:21:30;;;;;;;2.35;1.00;;;;;;;;;;5105276;28;20501;-70
2022/06/26 02:23:57;;;;;;;1.63;1.17;;;;;;;;;;5100365;28;20031;-70
2022/06/26 02:26:22;;;;;;;2.72;1.35;;;;;;;;;;5095942;28;20032;-70
2022/06/26 02:28:49;;;;;;;1.33;1.10;;;;;;;;;;5087752;28;20848;-72
2022/06/26 02:31:14;;;;;;;2.72;1.00;;;;;;;;;;5104016;28;20031;-73
2022/06/26 02:33:40;;;;;;;2.38;1.40;;;;;;;;;;5095840;28;20024;-73
2022/06/26 02:36:07;;;;;;;1.95;1.10;;;;;;;;;;5099111;28;20090;-73
2022/06/26 02:38:33;;;;;;;4.13;1.10;;;;;;;;;;5088566;28;20086;-72
2022/06/26 02:41:00;;;;;;;1.67;1.10;;;;;;;;;;5094006;28;20032;-72
2022/06/26 02:43:25;;;;;;;3.38;1.17;;;;;;;;;;5087090;28;20047;-73
2022/06/26 02:45:52;;;;;;;1.38;1.20;;;;;;;;;;5088789;28;20523;-72
2022/06/26 02:48:18;;;;;;;2.85;1.20;;;;;;;;;;5101200;28;20545;-73
2022/06/26 02:50:43;;;;;;;2.35;1.30;;;;;;;;;;5096851;28;20107;-73
2022/06/26 02:53:08;;;;;;;1.77;1.27;;;;;;;;;;5085989;28;20113;-72
2022/06/26 02:55:35;;;;;;;2.13;1.30;;;;;;;;;;5092108;28;20099;-73
2022/06/26 02:58:00;;;;;;;2.80;1.00;;;;;;;;;;5096073;28;20035;-73
2022/06/26 03:00:26;;;;;;;1.88;1.10;;;;;;;;;;5088326;28;20406;-72
2022/06/26 03:02:51;;;;;;;1.17;1.00;;;;;;;;;;5099695;28;20024;-73
2022/06/26 03:05:17;;;;;;;1.90;1.20;;;;;;;;;;5090958;28;20086;-73
2022/06/26 03:07:42;;;;;;;2.65;1.30;;;;;;;;;;5096268;28;20016;-73
2022/06/26 03:10:08;;;;;;;1.90;1.25;;;;;;;;;;5097610;28;20066;-72
2022/06/26 03:12:33;;;;;;;3.08;1.10;;;;;;;;;;5089530;28;20035;-73
2022/06/26 03:14:59;;;;;;;1.70;1.40;;;;;;;;;;5090323;28;20039;-73
2022/06/26 03:17:25;;;;;;;2.15;1.20;;;;;;;;;;5093109;28;20020;-73
2022/06/26 03:19:50;;;;;;;2.22;1.20;;;;;;;;;;5086625;28;20028;-72
2022/06/26 03:22:16;;;;;;;3.53;1.00;;;;;;;;;;5082656;28;20069;-73
2022/06/26 03:24:41;;;;;;;2.20;1.17;;;;;;;;;;5074078;28;20019;-73
2022/06/26 03:27:06;;;;;;;1.35;1.02;;;;;;;;;;5083314;28;20056;-73
2022/06/26 03:29:32;;;;;;;1.85;1.10;;;;;;;;;;5083165;28;20028;-73
2022/06/26 03:31:57;;;;;;;3.60;1.10;;;;;;;;;;5075778;28;20039;-74
2022/06/26 03:34:23;;;;;;;1.83;1.00;;;;;;;;;;5071266;28;20029;-74
2022/06/26 03:36:48;;;;;;;1.27;1.02;;;;;;;;;;5072798;28;20039;-74
2022/06/26 03:39:13;;;;;;;2.08;0.93;;;;;;;;;;5082819;28;20028;-73
2022/06/26 03:41:40;;;;;;;2.15;1.20;;;;;;;;;;5085483;28;20487;-74
2022/06/26 03:44:06;;;;;;;1.25;1.02;;;;;;;;;;5070299;28;20466;-73
2022/06/26 03:46:32;;;;;;;4.82;1.35;;;;;;;;;;5084730;28;20028;-73
2022/06/26 03:48:57;;;;;;;1.73;1.20;;;;;;;;;;5084351;28;20029;-74
2022/06/26 03:51:23;;;;;;;3.67;1.10;;;;;;;;;;5083877;28;20040;-73
2022/06/26 03:53:48;;;;;;;3.10;1.20;;;;;;;;;;5083718;28;20120;-73
2022/06/26 03:56:13;;;;;;;1.63;1.20;;;;;;;;;;5085023;28;20032;-73
2022/06/26 03:58:39;;;;;;;2.63;1.17;;;;;;;;;;5073037;28;20028;-74
2022/06/26 04:01:04;;;;;;;4.72;1.27;;;;;;;;;;5073087;28;20033;-73
2022/06/26 04:03:29;;;;;;;1.35;1.08;;;;;;;;;;5083173;28;20408;-74
2022/06/26 04:05:55;;;;;;;2.20;1.55;;;;;;;;;;5081869;28;20031;-73
2022/06/26 04:08:20;;;;;;;2.30;1.23;;;;;;;;;;5074178;28;20037;-73
2022/06/26 04:10:46;;;;;;;2.83;1.20;;;;;;;;;;5080607;28;20067;-74
2022/06/26 04:13:12;;;;;;;3.80;1.42;;;;;;;;;;5076052;28;20024;-73
2022/06/26 04:15:40;;;;;;;2.03;1.10;;;;;;;;;;5081209;28;20028;-74
2022/06/26 04:18:06;;;;;;;2.63;1.30;;;;;;;;;;5076280;28;20021;-74
2022/06/26 04:20:32;;;;;;;3.22;1.50;;;;;;;;;;5081642;28;20512;-74
2022/06/26 04:22:58;;;;;;;2.00;1.40;;;;;;;;;;5083429;28;20024;-74
2022/06/26 04:25:25;;;;;;;4.40;1.40;;;;;;;;;;5082164;28;20034;-74
2022/06/26 04:27:51;;;;;;;2.13;1.58;;;;;;;;;;5074019;28;20034;-74
2022/06/26 04:30:16;;;;;;;2.95;1.60;;;;;;;;;;5072202;28;20039;-74
2022/06/26 04:32:42;;;;;;;6.97;1.60;;;;;;;;;;5071766;28;20115;-73
2022/06/26 04:35:09;;;;;;;2.58;1.42;;;;;;;;;;5083428;28;20032;-73
2022/06/26 04:37:35;;;;;;;1.48;1.30;;;;;;;;;;5078964;28;20024;-73
2022/06/26 04:40:00;;;;;;;1.50;1.40;;;;;;;;;;5073888;28;20127;-73
2022/06/26 04:42:26;;;;;;;3.67;1.40;;;;;;;;;;5078642;28;20532;-74
2022/06/26 04:44:51;;;;;;;2.45;1.67;;;;;;;;;;5072668;28;20043;-74
2022/06/26 04:47:16;;;;;;;3.42;1.52;;;;;;;;;;5080548;28;20043;-74
2022/06/26 04:49:42;;;;;;;2.55;1.98;;;;;;;;;;5081798;28;20032;-73
2022/06/26 04:52:07;;;;;;;3.92;2.40;;;;;;;;;;5080571;28;20024;-72
2022/06/26 04:54:33;;;;;;;3.33;1.75;;;;;;;;;;5073811;28;20032;-73
2022/06/26 04:56:58;;;;;;;2.15;1.63;;;;;;;;;;5076549;28;20598;-72
2022/06/26 04:59:23;;;;;;;2.67;1.60;;;;;;;;;;5086222;28;20016;-72
2022/06/26 05:01:49;;;;;;;2.88;1.42;;;;;;;;;;5089876;28;20031;-73
2022/06/26 05:04:15;;;;;;;2.83;1.40;;;;;;;;;;5088668;28;20040;-73
2022/06/26 05:06:40;;;;;;;3.25;1.55;;;;;;;;;;5088124;28;20582;-73
2022/06/26 05:09:06;;;;;;;5.00;1.85;;;;;;;;;;5089406;28;20044;-73
2022/06/26 05:11:31;;;;;;;2.95;1.60;;;;;;;;;;5089751;28;20028;-73
2022/06/26 05:13:56;;;;;;;3.38;1.60;;;;;;;;;;5087707;28;20032;-73
2022/06/26 05:16:22;;;;;;;1.92;1.40;;;;;;;;;;5089505;28;20034;-74
2022/06/26 05:18:47;;;;;;;3.35;1.60;;;;;;;;;;5089230;28;20473;-73
2022/06/26 05:21:13;;;;;;;1.80;1.50;;;;;;;;;;5088913;28;20020;-72
2022/06/26 05:23:38;;;;;;;2.83;1.50;;;;;;;;;;5071517;28;20509;-73
2022/06/26 05:26:04;;;;;;;4.03;1.80;;;;;;;;;;5069489;28;20029;-73
2022/06/26 05:28:29;;;;;;;3.45;1.90;;;;;;;;;;5067672;28;20020;-73
2022/06/26 05:30:54;;;;;;;3.55;1.67;;;;;;;;;;5072123;28;20025;-73
2022/06/26 05:33:20;;;;;;;5.10;1.80;;;;;;;;;;5088124;28;20030;-74
2022/06/26 05:35:45;;;;;;;2.38;2.00;;;;;;;;;;5089126;28;20024;-73
2022/06/26 05:38:10;;;;;;;3.95;1.85;;;;;;;;;;5088883;28;20035;-72
2022/06/26 05:40:36;;;;;;;2.22;1.98;;;;;;;;;;5089180;28;20159;-74
2022/06/26 05:43:01;;;;;;;1.95;1.58;;;;;;;;;;5074787;28;20035;-72
2022/06/26 05:45:27;;;;;;;2.20;1.50;;;;;;;;;;5068860;28;20032;-72
2022/06/26 05:47:52;;;;;;;2.22;1.42;;;;;;;;;;5071323;28;20026;-71
2022/06/26 05:50:18;;;;;;;4.10;1.70;;;;;;;;;;5088928;28;20127;-73
2022/06/26 05:52:43;;;;;;;3.25;1.90;;;;;;;;;;5087870;28;20031;-74
2022/06/26 05:55:08;;;;;;;2.35;1.67;;;;;;;;;;5088985;28;20088;-72
2022/06/26 05:57:34;;;;;;;2.53;1.60;;;;;;;;;;5088960;28;20027;-72
2022/06/26 06:00:00;;;;;;;3.45;1.80;;;;;;;;;;5088796;28;20043;-73
2022/06/26 06:02:26;;;;;;;4.13;1.42;;;;;;;;;;5077187;28;20031;-72
2022/06/26 06:04:51;;;;;;;1.55;1.42;;;;;;;;;;5068417;28;20139;-73
2022/06/26 06:07:17;;;;;;;3.35;1.50;;;;;;;;;;5087440;28;20043;-71
2022/06/26 06:09:42;;;;;;;1.88;1.40;;;;;;;;;;5078394;28;20033;-72
2022/06/26 06:12:08;;;;;;;1.70;1.58;;;;;;;;;;5075353;28;20039;-73
2022/06/26 06:14:33;;;;;;;6.47;1.65;;;;;;;;;;5068550;28;20066;-72
2022/06/26 06:17:35;;;;;;;2.90;1.58;;;;;;;;;;5081847;28;20024;-72
2022/06/26 06:19:43;;;;;;;1.60;1.30;;;;;;;;;;5085847;28;20038;-71
2022/06/26 06:22:09;;;;;;;1.73;1.45;;;;;;;;;;5079866;28;20028;-72
2022/06/26 06:24:34;;;;;;;3.50;1.60;;;;;;;;;;5075096;28;20035;-72
2022/06/26 06:26:59;;;;;;;4.63;1.60;;;;;;;;;;5068117;28;20020;-73
2022/06/26 06:29:25;;;;;;;1.90;1.27;;;;;;;;;;5083453;28;20020;-71
2022/06/26 06:31:50;;;;;;;2.38;1.25;;;;;;;;;;5087524;28;20020;-72
2022/06/26 06:34:15;;;;;;;3.45;1.70;;;;;;;;;;5083086;28;20093;-72
2022/06/26 06:36:40;;;;;;;2.10;1.52;;;;;;;;;;5085644;28;20028;-71
2022/06/26 06:39:06;;;;;;;2.40;1.55;;;;;;;;;;5085630;28;20047;-73
2022/06/26 06:41:31;;;;;;;1.70;1.58;;;;;;;;;;5086470;28;20028;-72
2022/06/26 06:43:56;;;;;;;2.83;1.40;;;;;;;;;;5070595;28;20068;-72
2022/06/26 06:46:22;;;;;;;3.05;1.27;;;;;;;;;;5065997;28;20559;-72
2022/06/26 06:48:47;;;;;;;1.60;1.35;;;;;;;;;;5083695;28;20034;-71
2022/06/26 06:51:12;;;;;;;1.92;1.40;;;;;;;;;;5082185;28;20032;-70
2022/06/26 06:53:38;;;;;;;1.50;1.40;;;;;;;;;;5076738;28;20017;-73
2022/06/26 06:56:03;;;;;;;1.42;1.33;;;;;;;;;;5079969;28;20065;-72
2022/06/26 06:58:28;;;;;;;3.30;1.33;;;;;;;;;;5089857;28;20082;-72
2022/06/26 07:00:54;;;;;;;2.03;1.30;;;;;;;;;;5091214;28;20048;-71
2022/06/26 07:03:21;;;;;;;1.70;1.30;;;;;;;;;;5088523;28;20470;-72
2022/06/26 07:05:46;;;;;;;1.63;1.42;;;;;;;;;;5091335;28;20195;-72
2022/06/26 07:08:11;;;;;;;2.95;1.10;;;;;;;;;;5088880;28;20089;-73
2022/06/26 07:10:37;;;;;;;1.20;1.10;;;;;;;;;;5084684;28;20028;-70
2022/06/26 07:13:02;;;;;;;3.90;1.20;;;;;;;;;;5089562;28;20016;-72
2022/06/26 07:15:27;;;;;;;1.33;1.17;;;;;;;;;;5076409;28;20029;-73
2022/06/26 07:17:53;;;;;;;1.17;1.00;;;;;;;;;;5079247;28;20270;-73
2022/06/26 07:20:18;;;;;;;1.65;1.23;;;;;;;;;;5072652;28;20024;-71
2022/06/26 07:22:44;;;;;;;4.57;1.30;;;;;;;;;;5088852;28;20485;-71
2022/06/26 07:25:10;;;;;;;1.00;1.00;;;;;;;;;;5091300;28;20358;-71
2022/06/26 07:27:35;;;;;;;1.23;0.95;;;;;;;;;;5091476;28;20103;-71
2022/06/26 07:30:00;;;;;;;2.45;1.00;;;;;;;;;;5084907;28;20062;-70
2022/06/26 07:32:27;;;;;;;1.40;1.08;;;;;;;;;;5083299;28;20023;-72
2022/06/26 07:34:53;;;;;;;1.38;1.20;;;;;;;;;;5090004;28;20532;-71
2022/06/26 07:37:18;;;;;;;1.52;1.00;;;;;;;;;;5108637;22;20128;-76
2022/06/26 07:39:44;;;;;;;1.98;1.15;;;;;;;;;;5045882;28;20443;-75
2022/06/26 07:42:09;;;;;;;1.05;0.90;;;;;;;;;;5045251;28;20076;-74
2022/06/26 07:44:34;;;;;;;2.25;0.90;;;;;;;;;;5038509;28;20153;-73
2022/06/26 07:47:00;;;;;;;2.17;0.98;;;;;;;;;;5048653;28;20106;-73
2022/06/26 07:49:25;;;;;;;1.55;0.80;;;;;;;;;;5042175;28;20112;-73
2022/06/26 07:51:51;;;;;;;2.22;1.10;;;;;;;;;;5040856;28;20380;-73
2022/06/26 07:54:16;;;;;;;2.08;1.13;;;;;;;;;;5036301;28;20055;-74
2022/06/26 07:56:42;;;;;;;2.08;0.90;;;;;;;;;;5029032;28;20075;-73
2022/06/26 07:59:08;;;;;;;1.27;1.02;;;;;;;;;;5040650;28;20022;-72
2022/06/26 08:01:34;;;;;;;0.93;0.88;;;;;;;;;;5041503;28;20032;-73
2022/06/26 08:04:01;;;;;;;1.85;0.80;;;;;;;;;;5031167;28;20051;-75
2022/06/26 08:06:26;;;;;;;1.08;0.80;;;;;;;;;;5049457;28;20383;-73
2022/06/26 08:08:52;;;;;;;0.80;0.80;;;;;;;;;;5042376;28;20036;-72
2022/06/26 08:11:18;;;;;;;1.60;0.90;;;;;;;;;;5037790;28;20025;-74
2022/06/26 08:13:44;;;;;;;1.35;1.00;;;;;;;;;;5040805;28;20021;-73
2022/06/26 08:16:09;;;;;;;2.20;1.50;;;;;;;;;;5038108;28;20031;-72
2022/06/26 08:18:35;;;;;;;2.38;1.20;;;;;;;;;;5032445;28;20117;-72
2022/06/26 08:22:00;;;;;;;1.40;1.20;;;;;;;;;;5043306;28;20108;-74
2022/06/26 08:23:46;;;;;;;2.05;1.20;;;;;;;;;;5037711;28;20036;-72
2022/06/26 08:26:11;;;;;;;1.20;1.10;;;;;;;;;;5029695;28;20029;-73
2022/06/26 08:28:37;;;;;;;1.50;1.17;;;;;;;;;;5036804;28;20044;-72
2022/06/26 08:31:02;;;;;;;1.70;1.00;;;;;;;;;;5037024;28;20047;-72
2022/06/26 08:33:28;;;;;;;1.40;1.10;;;;;;;;;;5049560;28;20029;-74
2022/06/26 08:35:53;;;;;;;1.40;1.13;;;;;;;;;;5038915;28;20028;-73
2022/06/26 08:38:18;;;;;;;1.97;1.30;;;;;;;;;;5040193;28;20466;-73
2022/06/26 08:40:45;;;;;;;1.30;1.13;;;;;;;;;;5041968;28;20274;-72
2022/06/26 08:43:11;;;;;;;1.42;1.33;;;;;;;;;;5035614;28;20278;-73
2022/06/26 08:45:37;;;;;;;2.90;1.30;;;;;;;;;;5042919;28;20033;-72
2022/06/26 08:48:03;;;;;;;1.65;1.40;;;;;;;;;;5046907;28;20040;-72
2022/06/26 08:50:29;;;;;;;1.88;1.35;;;;;;;;;;5041888;28;20021;-73
2022/06/26 08:52:59;;;;;;;1.65;1.30;;;;;;;;;;5034015;28;20043;-73
2022/06/26 08:55:25;;;;;;;1.10;1.10;;;;;;;;;;5036303;28;20601;-72
2022/06/26 08:57:50;;;;;;;1.45;1.00;;;;;;;;;;5036106;28;20025;-72
2022/06/26 09:00:17;;;;;;;2.00;1.40;;;;;;;;;;5039986;28;20048;-72
2022/06/26 09:02:42;;;;;;;1.08;1.08;;;;;;;;;;5047891;28;20020;-73
2022/06/26 09:05:08;;;;;;;1.48;1.08;;;;;;;;;;5036243;28;20052;-72
2022/06/26 09:07:44;;;;;;;1.27;1.15;;;;;;;;;;5037412;28;20338;-72
2022/06/26 09:10:10;;;;;;;0.82;0.82;;;;;;;;;;5033912;28;20399;-72
2022/06/26 09:12:36;;;;;;;1.85;0.80;;;;;;;;;;5035713;28;20064;-70
2022/06/26 09:15:01;;;;;;;1.67;0.73;;;;;;;;;;5048751;28;20479;-74
2022/06/26 09:17:26;;;;;;;2.03;1.08;;;;;;;;;;5048063;28;20025;-72
2022/06/26 09:19:55;;;;;;;1.30;0.90;;;;;;;;;;5035500;28;20029;-71
2022/06/26 09:22:22;;;;;;;1.20;1.00;;;;;;;;;;5046143;28;20452;-72
2022/06/26 09:24:54;;;;;;;1.58;1.13;;;;;;;;;;5037869;28;20025;-71
2022/06/26 09:27:21;;;;;;;1.48;1.05;;;;;;;;;;5034449;28;20026;-72
2022/06/26 09:29:54;;;;;;;1.55;0.73;;;;;;;;;;5035296;28;20086;-72
2022/06/26 09:32:22;;;;;;;0.90;0.90;;;;;;;;;;5043864;28;20787;-72
2022/06/26 09:34:49;;;;;;;0.88;0.80;;;;;;;;;;5036761;28;20194;-72
2022/06/26 09:37:15;;;;;;;1.17;0.90;;;;;;;;;;5037108;28;20025;-72
2022/06/26 09:39:42;;;;;;;1.02;0.85;;;;;;;;;;5038342;28;20107;-72
2022/06/26 09:42:22;;;;;;;1.42;0.98;;;;;;;;;;5040544;28;20037;-72
2022/06/26 09:44:52;;;;;;;1.83;1.10;;;;;;;;;;5042251;28;20025;-72
2022/06/26 09:47:22;;;;;;;1.52;1.10;;;;;;;;;;5039367;28;20030;-72
2022/06/26 09:49:51;;;;;;;1.20;1.10;;;;;;;;;;5034505;28;20497;-71
2022/06/26 09:52:17;;;;;;;0.90;0.90;;;;;;;;;;5033692;28;20029;-72
2022/06/26 09:54:42;;;;;;;1.90;1.10;;;;;;;;;;5037156;28;20498;-72
2022/06/26 09:57:08;;;;;;;1.23;1.00;;;;;;;;;;5034935;28;20036;-71
2022/06/26 09:59:35;;;;;;;1.20;1.10;;;;;;;;;;5025053;28;20064;-72
2022/06/26 10:07:30;;;;;;;1.40;1.00;;;;;;;;;;5040566;28;20048;-74
2022/06/26 10:09:57;;;;;;;0.90;0.90;;;;;;;;;;5025812;28;20029;-71
2022/06/26 10:12:23;;;;;;;0.95;0.90;;;;;;;;;;5031626;28;20025;-72
2022/06/26 10:14:51;;;;;;;2.28;1.10;;;;;;;;;;5040505;28;20036;-72
2022/06/26 10:17:33;;;;;;;1.42;1.00;;;;;;;;;;5031350;28;20364;-71
2022/06/26 10:20:00;;;;;;;;;;;;;;;;;;5032357;28;20021;-74
2022/06/26 10:22:25;;;;;;;1.90;1.13;;;;;;;;;;5034434;28;19939;-71
2022/06/26 10:25:00;;;;;;;1.55;1.00;;;;;;;;;;5042867;28;20021;-71
2022/06/26 10:27:28;;;;;;;1.20;0.93;;;;;;;;;;5035820;28;20037;-71
2022/06/26 10:30:23;;;;;;;1.50;1.10;;;;;;;;;;5030220;28;20042;-71
2022/06/26 10:33:09;;;;;;;0.95;0.80;;;;;;;;;;5019524;28;20041;-76
2022/06/26 10:35:44;;;;;;;1.10;1.00;;;;;;;;;;5041182;28;20438;-71
2022/06/26 10:38:24;;;;;;;2.72;1.08;;;;;;;;;;5038700;28;20025;-71
2022/06/26 10:44:17;;;;;;;1.13;1.02;;;;;;;;;;5040926;28;20506;-70
2022/06/26 10:46:49;;;;;;;1.48;1.00;;;;;;;;;;5045238;28;20025;-71
2022/06/26 10:49:15;;;;;;;1.27;1.10;;;;;;;;;;5048864;28;20290;-71
2022/06/26 10:51:43;;;;;;;1.08;0.98;;;;;;;;;;5042736;28;20036;-72
2022/06/26 10:54:29;;;;;;;2.65;1.10;;;;;;;;;;5042688;28;20475;-73
2022/06/26 10:57:15;;;;;;;1.30;0.80;;;;;;;;;;5046822;28;20040;-72
2022/06/26 10:59:42;;;;;;;1.17;0.90;;;;;;;;;;5039620;28;20021;-72
2022/06/26 11:02:10;;;;;;;0.98;0.93;;;;;;;;;;5031965;28;20059;-72
2022/06/26 11:04:46;;;;;;;1.60;0.80;;;;;;;;;;5039175;28;20137;-72
2022/06/26 11:07:14;;;;;;;1.40;0.90;;;;;;;;;;5031265;28;20057;-71
2022/06/26 11:09:39;;;;;;;1.60;1.10;;;;;;;;;;5042900;28;20063;-71
2022/06/26 11:12:05;;;;;;;1.38;1.02;;;;;;;;;;5049182;28;20454;-71
2022/06/26 11:14:31;;;;;;;0.90;0.90;;;;;;;;;;5038908;28;20027;-72
2022/06/26 11:16:56;;;;;;;1.10;1.00;;;;;;;;;;5046111;28;20024;-71
2022/06/26 11:19:26;;;;;;;1.25;0.98;;;;;;;;;;5043088;28;20557;-72
2022/06/26 11:22:11;;;;;;;1.10;0.90;;;;;;;;;;5041197;28;20130;-71
2022/06/26 11:24:53;;;;;;;2.55;1.13;;;;;;;;;;5046044;28;20060;-71
2022/06/26 11:27:22;;;;;;;1.55;1.00;;;;;;;;;;5042622;28;20033;-72
2022/06/26 11:29:48;;;;;;;1.38;1.10;;;;;;;;;;5032244;28;20029;-71
2022/06/26 11:32:14;;;;;;;1.45;0.90;;;;;;;;;;5046850;28;20263;-71
2022/06/26 11:34:50;;;;;;;1.08;0.90;;;;;;;;;;5049466;28;20025;-71
2022/06/26 11:37:15;;;;;;;1.55;1.10;;;;;;;;;;5044424;28;20445;-71
2022/06/26 11:39:42;;;;;;;3.55;0.90;;;;;;;;;;5047666;28;20025;-71
2022/06/26 11:42:18;;;;;;;0.88;0.80;;;;;;;;;;5039107;28;20022;-71
2022/06/26 11:44:53;;;;;;;1.80;0.93;;;;;;;;;;5041182;28;20029;-71
2022/06/26 11:47:20;;;;;;;1.35;1.17;;;;;;;;;;5044361;28;20579;-71
2022/06/26 11:49:46;;;;;;;4.18;1.10;;;;;;;;;;5044772;28;20117;-71
2022/06/26 11:52:13;;;;;;;2.40;1.05;;;;;;;;;;5037800;28;20108;-71
2022/06/26 11:54:38;;;;;;;1.98;0.93;;;;;;;;;;5037587;28;20068;-71
2022/06/26 11:57:08;;;;;;;1.33;1.00;;;;;;;;;;5042191;28;20541;-72
2022/06/26 11:59:40;;;;;;;1.45;1.13;;;;;;;;;;5050562;28;20036;-72
2022/06/26 12:02:16;;;;;;;1.63;1.00;;;;;;;;;;5049336;28;20037;-71
2022/06/26 12:04:41;;;;;;;1.52;1.10;;;;;;;;;;5050685;28;20036;-72
2022/06/26 12:07:07;;;;;;;2.92;1.33;;;;;;;;;;5050133;28;20029;-72
2022/06/26 12:09:33;;;;;;;6.90;1.05;;;;;;;;;;5040782;28;20021;-72
2022/06/26 12:11:58;;;;;;;2.05;0.82;;;;;;;;;;5030724;28;20017;-72
2022/06/26 12:14:25;;;;;;;1.00;0.90;;;;;;;;;;5032645;28;20037;-72
2022/06/26 12:16:55;;;;;;;2.45;1.00;;;;;;;;;;5039084;28;20021;-72
2022/06/26 12:19:22;;;;;;;2.60;1.20;;;;;;;;;;5048449;28;20061;-72
2022/06/26 12:21:50;;;;;;;1.55;1.00;;;;;;;;;;5036241;28;20025;-73
2022/06/26 12:24:16;;;;;;;2.65;1.00;;;;;;;;;;5037911;28;20140;-72
2022/06/26 12:26:43;;;;;;;1.63;1.00;;;;;;;;;;5034991;28;20025;-72
2022/06/26 12:29:11;;;;;;;1.60;1.10;;;;;;;;;;5037223;28;20495;-72
2022/06/26 12:31:37;;;;;;;0.90;0.90;;;;;;;;;;5038032;28;20518;-72
2022/06/26 12:34:04;;;;;;;2.63;0.90;;;;;;;;;;5031501;28;20027;-73
2022/06/26 12:36:30;;;;;;;0.98;0.88;;;;;;;;;;5044478;28;20032;-72
2022/06/26 12:38:55;;;;;;;1.30;0.90;;;;;;;;;;5036459;28;20029;-73
2022/06/26 12:41:20;;;;;;;3.65;1.00;;;;;;;;;;5039937;28;20562;-72
2022/06/26 12:43:54;;;;;;;1.45;1.05;;;;;;;;;;5037641;28;20154;-74
2022/06/26 12:46:20;;;;;;;1.30;1.05;;;;;;;;;;5036791;28;20071;-73
2022/06/26 12:48:47;;;;;;;1.48;0.88;;;;;;;;;;5037967;28;20305;-72
2022/06/26 12:51:14;;;;;;;1.00;1.00;;;;;;;;;;5040871;28;20403;-72
2022/06/26 12:53:40;;;;;;;1.42;1.00;;;;;;;;;;5042375;28;20506;-73
2022/06/26 12:56:06;;;;;;;2.03;1.00;;;;;;;;;;5042950;28;20048;-74
2022/06/26 12:58:32;;;;;;;0.95;0.95;;;;;;;;;;5037983;28;20483;-74
2022/06/26 13:00:58;;;;;;;1.20;1.10;;;;;;;;;;5038957;28;20295;-74
2022/06/26 13:03:23;;;;;;;1.55;1.10;;;;;;;;;;5046520;28;20056;-73
2022/06/26 13:05:49;;;;;;;2.45;1.02;;;;;;;;;;5048946;28;20103;-73
2022/06/26 13:08:14;;;;;;;1.00;0.90;;;;;;;;;;5048600;28;20064;-73
2022/06/26 13:10:44;;;;;;;0.82;0.82;;;;;;;;;;5049029;28;20029;-73
2022/06/26 13:13:10;;;;;;;1.20;1.10;;;;;;;;;;5048781;28;20052;-73
2022/06/26 13:15:35;;;;;;;1.98;0.90;;;;;;;;;;5048293;28;20056;-73
2022/06/26 13:18:01;;;;;;;2.72;1.00;;;;;;;;;;5036858;28;20108;-72
2022/06/26 13:20:26;;;;;;;2.15;1.20;;;;;;;;;;5027525;28;20021;-73
2022/06/26 13:22:52;;;;;;;5.60;0.95;;;;;;;;;;5028974;28;20026;-73
2022/06/26 13:25:17;;;;;;;1.58;1.10;;;;;;;;;;5027732;28;20155;-72
2022/06/26 13:27:43;;;;;;;1.10;1.00;;;;;;;;;;5028779;28;20489;-72
2022/06/26 13:30:08;;;;;;;2.90;1.00;;;;;;;;;;5028551;28;20521;-73
2022/06/26 13:32:34;;;;;;;1.42;0.98;;;;;;;;;;5034296;28;20029;-72
2022/06/26 13:34:59;;;;;;;0.88;0.82;;;;;;;;;;5036793;28;20051;-73
2022/06/26 13:37:25;;;;;;;1.65;0.82;;;;;;;;;;5029363;28;20038;-73
2022/06/26 13:39:50;;;;;;;0.85;0.85;;;;;;;;;;5039140;28;20039;-72
2022/06/26 13:42:17;;;;;;;1.30;0.98;;;;;;;;;;5037163;28;20443;-72
2022/06/26 13:44:43;;;;;;;1.45;1.00;;;;;;;;;;5028748;28;20025;-73
2022/06/26 13:47:08;;;;;;;1.35;1.08;;;;;;;;;;5028412;28;20033;-73
2022/06/26 13:49:33;;;;;;;1.00;0.70;;;;;;;;;;5039468;28;20348;-72
2022/06/26 13:51:59;;;;;;;1.05;0.95;;;;;;;;;;5029071;28;20029;-73
2022/06/26 13:54:24;;;;;;;1.10;1.00;;;;;;;;;;5028745;28;20035;-73
2022/06/26 13:56:50;;;;;;;2.00;1.10;;;;;;;;;;5028715;28;20041;-72
2022/06/26 13:59:16;;;;;;;1.40;1.00;;;;;;;;;;5028247;28;20152;-72
2022/06/26 14:01:42;;;;;;;2.00;1.20;;;;;;;;;;5028412;28;20029;-73
2022/06/26 14:04:07;;;;;;;1.33;1.00;;;;;;;;;;5031671;28;20021;-73
2022/06/26 14:06:32;;;;;;;1.08;0.95;;;;;;;;;;5039879;28;20419;-73
2022/06/26 14:08:58;;;;;;;1.27;0.85;;;;;;;;;;5028752;28;20030;-73
2022/06/26 14:11:23;;;;;;;2.35;1.23;;;;;;;;;;5028323;28;20200;-73
2022/06/26 14:13:49;;;;;;;2.72;1.70;;;;;;;;;;5028185;28;20391;-72
2022/06/26 14:16:15;;;;;;;1.75;1.50;;;;;;;;;;5028119;28;20068;-72
2022/06/26 14:18:40;;;;;;;3.97;1.40;;;;;;;;;;5027881;28;20061;-72
2022/06/26 14:21:07;;;;;;;4.53;1.70;;;;;;;;;;5035373;28;20112;-73
2022/06/26 14:26:18;;;;;;;1.17;0.98;;;;;;;;;;5028296;28;20036;-73
2022/06/26 14:28:44;;;;;;;2.10;1.20;;;;;;;;;;5027858;28;20049;-71
2022/06/26 14:31:09;;;;;;;1.50;0.93;;;;;;;;;;5027874;28;20029;-72
2022/06/26 14:33:35;;;;;;;1.10;0.95;;;;;;;;;;5028148;28;20052;-71
2022/06/26 14:36:02;;;;;;;3.45;1.10;;;;;;;;;;5030092;28;20028;-73
2022/06/26 14:38:29;;;;;;;1.15;0.80;;;;;;;;;;5038943;28;20118;-72
2022/06/26 14:40:55;;;;;;;1.27;1.00;;;;;;;;;;5029137;28;20041;-73
2022/06/26 14:43:20;;;;;;;1.67;1.10;;;;;;;;;;5028057;28;20067;-72
2022/06/26 14:45:45;;;;;;;2.58;1.02;;;;;;;;;;5027925;28;20045;-72
2022/06/26 14:48:11;;;;;;;1.90;1.20;;;;;;;;;;5026250;28;20068;-73
2022/06/26 14:50:36;;;;;;;4.38;1.40;;;;;;;;;;5027865;28;20017;-72
2022/06/26 14:53:01;;;;;;;1.20;1.10;;;;;;;;;;5033398;28;20044;-72